Portada
METAR-TAF:

METAR-TAF

Aeroports :

Ubon Ratchathani, Tailàndia

latitud: 15-15N, longitud: 104-52E, altitud: 123 m

Observació

L'informe es va fer fa 1 hora i 2 minuts, a les 00:00 UTC
Vent 3 kt del Est/Nord-Est
Temperatura 20°C
Humitat 88%
Pressió 1017 hPa
Visibilitat: 9000 m

METAR: VTUU 210000Z 06003KT 9000 NSC 20/18 Q1017 NOSIG

Hora: 08:02 (01:02 UTC)

Pronòstic

L'informe es va fer fa 2 hores i 2 minuts, a les 23:00 UTC
Pronòstic vàlid del 21 a les 00 UTC al 21 a les 24 UTC
Vent 5 kt del Nord-Est
Visibilitat: 9000 m

TAF: VTUU 202300Z 2100/2124 05005KT 9000 NSC

Observacions i pronòstics meteorològics de més de 4000 aeroports (METAR i TAF).

Les estacions disponibles són els punts grocs i vermells al mapa.

Posi el ratolí al punt desitjat per veure el nom de l'estació.

Feu clic per veure les observacions i els pronòstics meteorològics.

Per canviar el mapa: feu clic els botons verds amb una creu de color negre per apropar; al botó verd amb un guió per allunyar la imatge; o en les fletxes verdes per a mapes adjacents.


METAR-TAF: